sensor_id;sensor_type;location;lat;lon;timestamp;pressure;altitude;pressure_sealevel;temperature;humidity
39823;BME280;25499;53.958;10.970;2023-04-29T06:35:08;101255.47;;;11.46;95.43
39823;BME280;25499;53.958;10.970;2023-04-29T06:37:35;101263.28;;;11.74;94.22
39823;BME280;25499;53.958;10.970;2023-04-29T06:40:03;101258.09;;;11.91;93.36
39823;BME280;25499;53.958;10.970;2023-04-29T06:42:29;101255.47;;;11.77;91.43
39823;BME280;25499;53.958;10.970;2023-04-29T06:44:56;101264.19;;;11.96;91.42
39823;BME280;25499;53.958;10.970;2023-04-29T06:47:23;101260.69;;;12.20;89.82
39823;BME280;25499;53.958;10.970;2023-04-29T06:49:50;101248.47;;;12.28;87.76
39823;BME280;25499;53.958;10.970;2023-04-29T06:52:18;101246.72;;;12.38;86.72
39823;BME280;25499;53.958;10.970;2023-04-29T06:54:45;101255.41;;;12.45;87.48
39823;BME280;25499;53.958;10.970;2023-04-29T06:57:12;101257.06;;;12.66;86.64
39823;BME280;25499;53.958;10.970;2023-04-29T06:59:39;101259.59;;;12.94;86.13
39823;BME280;25499;53.958;10.970;2023-04-29T07:02:09;101251.78;;;12.89;84.17
39823;BME280;25499;53.958;10.970;2023-04-29T07:04:42;101253.47;;;12.99;82.57
39823;BME280;25499;53.958;10.970;2023-04-29T07:07:11;101252.41;;;13.31;81.80
39823;BME280;25499;53.958;10.970;2023-04-29T07:09:44;101260.19;;;13.43;81.30
39823;BME280;25499;53.958;10.970;2023-04-29T07:12:10;101261.13;;;13.36;81.55
39823;BME280;25499;53.958;10.970;2023-04-29T07:14:37;101267.19;;;13.43;82.14
39823;BME280;25499;53.958;10.970;2023-04-29T07:17:05;101253.31;;;13.33;80.72
39823;BME280;25499;53.958;10.970;2023-04-29T07:19:32;101258.19;;;13.79;80.15
39823;BME280;25499;53.958;10.970;2023-04-29T07:21:58;101256.25;;;14.02;78.54
39823;BME280;25499;53.958;10.970;2023-04-29T07:24:25;101258.00;;;14.03;78.53
39823;BME280;25499;53.958;10.970;2023-04-29T07:26:53;101256.16;;;14.15;77.58
39823;BME280;25499;53.958;10.970;2023-04-29T07:29:20;101253.41;;;14.26;76.46
39823;BME280;25499;53.958;10.970;2023-04-29T07:31:47;101268.19;;;14.32;76.55
39823;BME280;25499;53.958;10.970;2023-04-29T07:34:14;101263.50;;;14.66;75.90
39823;BME280;25499;53.958;10.970;2023-04-29T07:36:43;101242.63;;;14.51;74.59
39823;BME280;25499;53.958;10.970;2023-04-29T07:39:09;101255.91;;;14.37;74.79
39823;BME280;25499;53.958;10.970;2023-04-29T07:41:41;101265.75;;;14.96;73.95
39823;BME280;25499;53.958;10.970;2023-04-29T07:44:10;101256.00;;;15.05;72.29
39823;BME280;25499;53.958;10.970;2023-04-29T07:46:37;101255.81;;;15.19;72.10
39823;BME280;25499;53.958;10.970;2023-04-29T07:49:04;101255.38;;;15.47;71.18
39823;BME280;25499;53.958;10.970;2023-04-29T07:51:31;101239.38;;;15.64;69.77
39823;BME280;25499;53.958;10.970;2023-04-29T07:53:59;101228.00;;;15.63;68.52
39823;BME280;25499;53.958;10.970;2023-04-29T07:56:26;101240.22;;;15.64;67.97
39823;BME280;25499;53.958;10.970;2023-04-29T07:58:53;101221.63;;;15.80;66.99
39823;BME280;25499;53.958;10.970;2023-04-29T08:01:22;101245.19;;;15.84;67.35
39823;BME280;25499;53.958;10.970;2023-04-29T08:03:48;101235.09;;;16.11;66.37
39823;BME280;25499;53.958;10.970;2023-04-29T08:06:15;101244.91;;;16.01;66.56
39823;BME280;25499;53.958;10.970;2023-04-29T08:08:45;101251.38;;;16.30;66.93
39823;BME280;25499;53.958;10.970;2023-04-29T08:11:15;101254.16;;;16.22;66.94
39823;BME280;25499;53.958;10.970;2023-04-29T08:13:42;101252.94;;;15.94;67.69
39823;BME280;25499;53.958;10.970;2023-04-29T08:16:09;101258.13;;;15.95;67.27
39823;BME280;25499;53.958;10.970;2023-04-29T08:18:37;101273.63;;;16.11;68.25
39823;BME280;25499;53.958;10.970;2023-04-29T08:21:04;101286.25;;;16.40;68.40
39823;BME280;25499;53.958;10.970;2023-04-29T08:23:31;101239.31;;;16.20;65.57
39823;BME280;25499;53.958;10.970;2023-04-29T08:25:58;101277.34;;;16.47;66.92
39823;BME280;25499;53.958;10.970;2023-04-29T08:28:25;101254.47;;;16.51;65.47
39823;BME280;25499;53.958;10.970;2023-04-29T08:30:52;101249.13;;;16.57;63.60
39823;BME280;25499;53.958;10.970;2023-04-29T08:33:20;101243.19;;;16.91;63.11
39823;BME280;25499;53.958;10.970;2023-04-29T08:35:48;101217.63;;;16.98;61.56
39823;BME280;25499;53.958;10.970;2023-04-29T08:38:22;101231.50;;;17.04;61.62
39823;BME280;25499;53.958;10.970;2023-04-29T08:40:49;101242.91;;;17.42;60.97
39823;BME280;25499;53.958;10.970;2023-04-29T08:43:17;101236.88;;;17.37;60.47
39823;BME280;25499;53.958;10.970;2023-04-29T08:45:45;101219.00;;;17.51;59.56
39823;BME280;25499;53.958;10.970;2023-04-29T08:48:14;101224.53;;;17.39;59.32
39823;BME280;25499;53.958;10.970;2023-04-29T08:50:42;101244.72;;;17.76;60.09
39823;BME280;25499;53.958;10.970;2023-04-29T08:53:12;101239.59;;;17.70;59.17
39823;BME280;25499;53.958;10.970;2023-04-29T08:55:40;101230.44;;;17.86;58.68
39823;BME280;25499;53.958;10.970;2023-04-29T08:58:11;101241.53;;;17.99;58.30
39823;BME280;25499;53.958;10.970;2023-04-29T09:00:39;101276.50;;;18.39;59.07
39823;BME280;25499;53.958;10.970;2023-04-29T09:03:13;101238.31;;;18.52;57.37
39823;BME280;25499;53.958;10.970;2023-04-29T09:05:44;101251.81;;;18.73;57.79
39823;BME280;25499;53.958;10.970;2023-04-29T09:08:16;101255.34;;;18.72;57.77
39823;BME280;25499;53.958;10.970;2023-04-29T09:10:43;101244.09;;;18.65;57.15
39823;BME280;25499;53.958;10.970;2023-04-29T09:13:22;101254.03;;;18.88;57.08
39823;BME280;25499;53.958;10.970;2023-04-29T09:15:48;101256.06;;;19.08;57.28
39823;BME280;25499;53.958;10.970;2023-04-29T09:18:43;101246.44;;;19.06;55.81
39823;BME280;25499;53.958;10.970;2023-04-29T09:21:16;101237.13;;;19.24;54.71
39823;BME280;25499;53.958;10.970;2023-04-29T09:23:45;101228.38;;;19.22;54.80
39823;BME280;25499;53.958;10.970;2023-04-29T09:26:12;101262.81;;;19.47;55.35
39823;BME280;25499;53.958;10.970;2023-04-29T09:28:39;101230.69;;;19.59;53.96
39823;BME280;25499;53.958;10.970;2023-04-29T09:31:09;101204.56;;;20.03;52.23
39823;BME280;25499;53.958;10.970;2023-04-29T09:33:50;101192.88;;;19.84;51.27
39823;BME280;25499;53.958;10.970;2023-04-29T09:36:42;101203.69;;;19.78;51.83
39823;BME280;25499;53.958;10.970;2023-04-29T09:39:12;101190.00;;;19.65;51.31
39823;BME280;25499;53.958;10.970;2023-04-29T09:41:41;101229.06;;;20.08;51.91
39823;BME280;25499;53.958;10.970;2023-04-29T09:44:10;101203.56;;;20.06;50.85
39823;BME280;25499;53.958;10.970;2023-04-29T09:46:37;101194.56;;;20.11;50.41
39823;BME280;25499;53.958;10.970;2023-04-29T09:49:04;101223.09;;;20.27;50.60
39823;BME280;25499;53.958;10.970;2023-04-29T09:51:51;101195.13;;;20.68;49.49
39823;BME280;25499;53.958;10.970;2023-04-29T09:54:21;101207.63;;;20.65;49.38
39823;BME280;25499;53.958;10.970;2023-04-29T09:56:48;101218.03;;;20.93;49.71
39823;BME280;25499;53.958;10.970;2023-04-29T09:59:16;101203.75;;;20.74;48.30
39823;BME280;25499;53.958;10.970;2023-04-29T10:01:43;101218.84;;;21.17;48.92
39823;BME280;25499;53.958;10.970;2023-04-29T10:04:10;101197.97;;;21.32;47.57
39823;BME280;25499;53.958;10.970;2023-04-29T10:06:39;101200.78;;;21.05;47.64
39823;BME280;25499;53.958;10.970;2023-04-29T10:09:07;101192.69;;;21.10;47.87
39823;BME280;25499;53.958;10.970;2023-04-29T10:11:39;101204.97;;;21.33;47.96
39823;BME280;25499;53.958;10.970;2023-04-29T10:14:06;101184.63;;;21.33;47.21
39823;BME280;25499;53.958;10.970;2023-04-29T10:16:44;101195.38;;;21.30;47.19
39823;BME280;25499;53.958;10.970;2023-04-29T10:19:14;101173.50;;;21.47;45.98
39823;BME280;25499;53.958;10.970;2023-04-29T10:21:43;101204.97;;;21.11;46.59
39823;BME280;25499;53.958;10.970;2023-04-29T10:24:11;101208.28;;;21.38;47.22
39823;BME280;25499;53.958;10.970;2023-04-29T10:26:42;101216.06;;;21.65;46.44
39823;BME280;25499;53.958;10.970;2023-04-29T10:29:10;101197.16;;;21.52;46.01
39823;BME280;25499;53.958;10.970;2023-04-29T10:31:40;101195.84;;;21.18;45.82
39823;BME280;25499;53.958;10.970;2023-04-29T10:34:08;101196.66;;;21.42;46.73
39823;BME280;25499;53.958;10.970;2023-04-29T10:36:37;101210.63;;;21.68;46.19
39823;BME280;25499;53.958;10.970;2023-04-29T10:39:10;101163.72;;;21.49;44.79
39823;BME280;25499;53.958;10.970;2023-04-29T10:41:44;101180.59;;;21.67;45.46
39823;BME280;25499;53.958;10.970;2023-04-29T10:44:11;101188.03;;;21.79;45.73
39823;BME280;25499;53.958;10.970;2023-04-29T10:46:39;101161.09;;;22.09;44.89
39823;BME280;25499;53.958;10.970;2023-04-29T10:49:06;101197.38;;;22.09;45.51
39823;BME280;25499;53.958;10.970;2023-04-29T10:51:34;101156.91;;;22.24;44.69
39823;BME280;25499;53.958;10.970;2023-04-29T10:54:07;101188.72;;;22.45;44.81
39823;BME280;25499;53.958;10.970;2023-04-29T10:56:35;101157.31;;;22.35;44.54
39823;BME280;25499;53.958;10.970;2023-04-29T10:59:04;101125.38;;;21.97;43.52
39823;BME280;25499;53.958;10.970;2023-04-29T11:01:43;101156.88;;;22.45;43.93
39823;BME280;25499;53.958;10.970;2023-04-29T11:04:10;101146.25;;;22.05;43.09
39823;BME280;25499;53.958;10.970;2023-04-29T11:06:38;101149.34;;;22.54;42.92
39823;BME280;25499;53.958;10.970;2023-04-29T11:09:08;101139.38;;;22.41;42.79
39823;BME280;25499;53.958;10.970;2023-04-29T11:11:43;101156.66;;;22.30;42.94
39823;BME280;25499;53.958;10.970;2023-04-29T11:14:12;101161.97;;;22.68;42.63
39823;BME280;25499;53.958;10.970;2023-04-29T11:16:47;101159.44;;;22.65;42.81
39823;BME280;25499;53.958;10.970;2023-04-29T11:19:15;101166.63;;;22.63;42.89
39823;BME280;25499;53.958;10.970;2023-04-29T11:21:44;101156.94;;;22.62;42.71
39823;BME280;25499;53.958;10.970;2023-04-29T11:24:12;101143.75;;;22.61;42.39
39823;BME280;25499;53.958;10.970;2023-04-29T11:26:41;101153.81;;;22.54;42.52
39823;BME280;25499;53.958;10.970;2023-04-29T11:29:12;101155.06;;;22.45;42.67
39823;BME280;25499;53.958;10.970;2023-04-29T11:31:39;101132.88;;;22.27;42.41
39823;BME280;25499;53.958;10.970;2023-04-29T11:34:06;101154.06;;;22.48;42.32
39823;BME280;25499;53.958;10.970;2023-04-29T11:36:33;101145.88;;;22.71;42.24
39823;BME280;25499;53.958;10.970;2023-04-29T11:39:01;101147.41;;;22.39;41.58
39823;BME280;25499;53.958;10.970;2023-04-29T11:41:29;101175.69;;;22.59;42.46
39823;BME280;25499;53.958;10.970;2023-04-29T11:43:57;101108.78;;;22.70;40.76
39823;BME280;25499;53.958;10.970;2023-04-29T11:46:29;101163.03;;;22.25;41.88
39823;BME280;25499;53.958;10.970;2023-04-29T11:48:57;101163.78;;;22.49;42.05
39823;BME280;25499;53.958;10.970;2023-04-29T11:51:24;101211.16;;;22.76;43.58
39823;BME280;25499;53.958;10.970;2023-04-29T11:53:51;101180.59;;;22.67;42.37
39823;BME280;25499;53.958;10.970;2023-04-29T11:56:20;101123.97;;;22.49;41.45
39823;BME280;25499;53.958;10.970;2023-04-29T11:58:48;101163.13;;;22.44;41.42
39823;BME280;25499;53.958;10.970;2023-04-29T12:01:15;101161.66;;;22.37;42.28
39823;BME280;25499;53.958;10.970;2023-04-29T12:03:43;101153.00;;;22.12;41.99
39823;BME280;25499;53.958;10.970;2023-04-29T12:06:12;101138.72;;;22.35;41.84
39823;BME280;25499;53.958;10.970;2023-04-29T12:08:39;101145.81;;;22.35;41.48
39823;BME280;25499;53.958;10.970;2023-04-29T12:11:06;101162.56;;;21.96;41.67
39823;BME280;25499;53.958;10.970;2023-04-29T12:13:33;101153.88;;;21.92;41.80
39823;BME280;25499;53.958;10.970;2023-04-29T12:16:01;101170.03;;;22.27;42.03
39823;BME280;25499;53.958;10.970;2023-04-29T12:18:28;101213.16;;;22.12;43.23
39823;BME280;25499;53.958;10.970;2023-04-29T12:20:57;101192.00;;;22.31;42.82
39823;BME280;25499;53.958;10.970;2023-04-29T12:23:24;101203.16;;;21.98;43.51
39823;BME280;25499;53.958;10.970;2023-04-29T12:25:53;101178.41;;;21.77;42.90
39823;BME280;25499;53.958;10.970;2023-04-29T12:28:20;101127.88;;;21.61;41.67
39823;BME280;25499;53.958;10.970;2023-04-29T12:30:49;101147.41;;;21.36;42.46
39823;BME280;25499;53.958;10.970;2023-04-29T12:33:20;101112.97;;;20.94;41.82
39823;BME280;25499;53.958;10.970;2023-04-29T12:35:48;101174.03;;;20.89;43.63
39823;BME280;25499;53.958;10.970;2023-04-29T12:38:21;101143.56;;;20.55;43.16
39823;BME280;25499;53.958;10.970;2023-04-29T12:40:48;101158.97;;;20.69;43.58
39823;BME280;25499;53.958;10.970;2023-04-29T12:43:15;101186.81;;;21.01;44.06
39823;BME280;25499;53.958;10.970;2023-04-29T12:45:43;101103.94;;;20.31;42.84
39823;BME280;25499;53.958;10.970;2023-04-29T12:48:10;101187.19;;;20.68;44.90
39823;BME280;25499;53.958;10.970;2023-04-29T12:50:38;101200.41;;;21.14;44.96
39823;BME280;25499;53.958;10.970;2023-04-29T12:53:06;101150.66;;;20.55;43.94
39823;BME280;25499;53.958;10.970;2023-04-29T12:55:35;101160.69;;;20.70;44.37
39823;BME280;25499;53.958;10.970;2023-04-29T12:58:03;101205.91;;;21.10;45.18
39823;BME280;25499;53.958;10.970;2023-04-29T13:00:30;101203.84;;;20.94;45.46
39823;BME280;25499;53.958;10.970;2023-04-29T13:02:58;101186.13;;;20.74;45.16
39823;BME280;25499;53.958;10.970;2023-04-29T13:05:25;101149.63;;;20.11;44.29
39823;BME280;25499;53.958;10.970;2023-04-29T13:07:52;101206.69;;;20.42;46.35
39823;BME280;25499;53.958;10.970;2023-04-29T13:10:19;101156.84;;;20.31;45.26
39823;BME280;25499;53.958;10.970;2023-04-29T13:12:47;101164.38;;;19.93;45.57
39823;BME280;25499;53.958;10.970;2023-04-29T13:15:14;101169.78;;;19.37;46.41
39823;BME280;25499;53.958;10.970;2023-04-29T13:17:41;101179.25;;;19.16;47.25
39823;BME280;25499;53.958;10.970;2023-04-29T13:20:08;101186.22;;;18.90;48.14
39823;BME280;25499;53.958;10.970;2023-04-29T13:22:36;101222.69;;;18.76;49.51
39823;BME280;25499;53.958;10.970;2023-04-29T13:25:03;101204.94;;;18.51;48.98
39823;BME280;25499;53.958;10.970;2023-04-29T13:27:30;101223.31;;;18.54;49.30
39823;BME280;25499;53.958;10.970;2023-04-29T13:29:58;101228.13;;;18.40;49.68
39823;BME280;25499;53.958;10.970;2023-04-29T13:32:25;101241.34;;;18.38;50.77
39823;BME280;25499;53.958;10.970;2023-04-29T13:34:52;101245.91;;;18.33;51.29
39823;BME280;25499;53.958;10.970;2023-04-29T13:37:18;101228.56;;;18.24;50.18
39823;BME280;25499;53.958;10.970;2023-04-29T13:39:45;101255.31;;;18.42;50.70
39823;BME280;25499;53.958;10.970;2023-04-29T13:42:12;101260.09;;;18.27;51.26
39823;BME280;25499;53.958;10.970;2023-04-29T13:44:39;101244.03;;;18.04;51.04
39823;BME280;25499;53.958;10.970;2023-04-29T13:47:10;101247.47;;;17.70;51.48
39823;BME280;25499;53.958;10.970;2023-04-29T13:49:38;101253.41;;;17.44;52.33
39823;BME280;25499;53.958;10.970;2023-04-29T13:52:06;101260.09;;;17.20;52.70
39823;BME280;25499;53.958;10.970;2023-04-29T13:54:33;101259.25;;;16.75;53.02
39823;BME280;25499;53.958;10.970;2023-04-29T13:57:00;101265.13;;;16.45;53.72
39823;BME280;25499;53.958;10.970;2023-04-29T13:59:28;101276.91;;;16.23;54.62
39823;BME280;25499;53.958;10.970;2023-04-29T14:01:55;101286.09;;;15.98;55.01
39823;BME280;25499;53.958;10.970;2023-04-29T14:04:23;101307.16;;;15.95;55.86
39823;BME280;25499;53.958;10.970;2023-04-29T14:06:50;101317.84;;;15.84;56.50
39823;BME280;25499;53.958;10.970;2023-04-29T14:09:17;101321.34;;;15.83;56.09
39823;BME280;25499;53.958;10.970;2023-04-29T14:11:44;101318.91;;;15.71;56.21
39823;BME280;25499;53.958;10.970;2023-04-29T14:14:11;101325.81;;;15.78;55.92
39823;BME280;25499;53.958;10.970;2023-04-29T14:16:38;101329.22;;;15.84;55.85
39823;BME280;25499;53.958;10.970;2023-04-29T14:19:05;101316.66;;;16.02;55.17
39823;BME280;25499;53.958;10.970;2023-04-29T14:21:33;101353.53;;;16.49;55.93
39823;BME280;25499;53.958;10.970;2023-04-29T14:24:01;101328.88;;;16.56;54.60
39823;BME280;25499;53.958;10.970;2023-04-29T14:26:29;101291.34;;;16.48;52.89
39823;BME280;25499;53.958;10.970;2023-04-29T14:28:56;101319.25;;;16.56;53.82
39823;BME280;25499;53.958;10.970;2023-04-29T14:31:24;101299.16;;;16.51;52.91
39823;BME280;25499;53.958;10.970;2023-04-29T14:33:54;101342.81;;;16.59;54.52
39823;BME280;25499;53.958;10.970;2023-04-29T14:36:21;101336.81;;;16.53;54.71
39823;BME280;25499;53.958;10.970;2023-04-29T14:38:49;101369.06;;;16.63;55.84
39823;BME280;25499;53.958;10.970;2023-04-29T14:41:16;101352.53;;;16.54;55.62
39823;BME280;25499;53.958;10.970;2023-04-29T14:43:43;101372.00;;;16.95;55.42
39823;BME280;25499;53.958;10.970;2023-04-29T14:46:10;101344.69;;;17.01;54.26
39823;BME280;25499;53.958;10.970;2023-04-29T14:48:36;101362.84;;;17.13;54.37
39823;BME280;25499;53.958;10.970;2023-04-29T14:51:04;101345.72;;;16.94;54.34
39823;BME280;25499;53.958;10.970;2023-04-29T14:53:31;101336.34;;;16.77;54.54
39823;BME280;25499;53.958;10.970;2023-04-29T14:55:59;101347.22;;;16.59;54.65
39823;BME280;25499;53.958;10.970;2023-04-29T14:58:28;101336.03;;;16.46;54.36
39823;BME280;25499;53.958;10.970;2023-04-29T15:00:54;101366.59;;;16.53;55.20
39823;BME280;25499;53.958;10.970;2023-04-29T15:03:21;101386.81;;;16.50;56.51
39823;BME280;25499;53.958;10.970;2023-04-29T15:05:48;101392.88;;;16.55;56.92
39823;BME280;25499;53.958;10.970;2023-04-29T15:08:15;101375.56;;;16.41;56.61
39823;BME280;25499;53.958;10.970;2023-04-29T15:10:42;101345.00;;;16.36;55.37
39823;BME280;25499;53.958;10.970;2023-04-29T15:13:12;101339.19;;;16.17;54.68
39823;BME280;25499;53.958;10.970;2023-04-29T15:15:39;101304.81;;;15.78;54.30
39823;BME280;25499;53.958;10.970;2023-04-29T15:18:06;101332.91;;;15.68;55.13
39823;BME280;25499;53.958;10.970;2023-04-29T15:20:33;101341.16;;;15.45;55.59
39823;BME280;25499;53.958;10.970;2023-04-29T15:23:00;101353.31;;;15.49;56.52
39823;BME280;25499;53.958;10.970;2023-04-29T15:25:28;101360.50;;;15.36;55.92
39823;BME280;25499;53.958;10.970;2023-04-29T15:27:54;101355.53;;;15.13;56.28
39823;BME280;25499;53.958;10.970;2023-04-29T15:30:25;101397.63;;;15.04;57.75
39823;BME280;25499;53.958;10.970;2023-04-29T15:32:52;101379.97;;;15.17;57.11
39823;BME280;25499;53.958;10.970;2023-04-29T15:35:19;101345.25;;;14.96;55.83
39823;BME280;25499;53.958;10.970;2023-04-29T15:37:46;101371.44;;;15.01;56.44
39823;BME280;25499;53.958;10.970;2023-04-29T15:40:12;101350.63;;;14.87;55.77
39823;BME280;25499;53.958;10.970;2023-04-29T15:42:40;101344.63;;;14.74;55.61
39823;BME280;25499;53.958;10.970;2023-04-29T15:45:08;101357.84;;;14.65;56.20
39823;BME280;25499;53.958;10.970;2023-04-29T15:47:36;101372.50;;;14.81;56.07
39823;BME280;25499;53.958;10.970;2023-04-29T15:50:03;101402.25;;;14.79;56.91
39823;BME280;25499;53.958;10.970;2023-04-29T15:52:30;101411.94;;;14.73;58.04
39823;BME280;25499;53.958;10.970;2023-04-29T15:54:57;101398.94;;;14.57;57.59
39823;BME280;25499;53.958;10.970;2023-04-29T15:57:24;101377.09;;;14.61;56.14
39823;BME280;25499;53.958;10.970;2023-04-29T15:59:51;101400.72;;;14.53;56.98
39823;BME280;25499;53.958;10.970;2023-04-29T16:02:17;101398.13;;;14.53;56.87
39823;BME280;25499;53.958;10.970;2023-04-29T16:04:46;101407.84;;;14.35;57.19
39823;BME280;25499;53.958;10.970;2023-04-29T16:07:13;101373.81;;;14.34;56.34
39823;BME280;25499;53.958;10.970;2023-04-29T16:09:40;101392.94;;;14.45;56.81
39823;BME280;25499;53.958;10.970;2023-04-29T16:12:07;101360.94;;;14.09;55.86
39823;BME280;25499;53.958;10.970;2023-04-29T16:14:37;101408.91;;;14.13;56.94
39823;BME280;25499;53.958;10.970;2023-04-29T16:17:03;101379.31;;;14.02;56.82
39823;BME280;25499;53.958;10.970;2023-04-29T16:19:30;101363.63;;;13.98;55.96
39823;BME280;25499;53.958;10.970;2023-04-29T16:21:58;101384.72;;;13.75;56.32
39823;BME280;25499;53.958;10.970;2023-04-29T16:24:25;101365.59;;;13.66;56.23
39823;BME280;25499;53.958;10.970;2023-04-29T16:26:52;101366.50;;;13.55;55.56
39823;BME280;25499;53.958;10.970;2023-04-29T16:29:19;101381.34;;;13.56;55.71
39823;BME280;25499;53.958;10.970;2023-04-29T16:31:46;101358.72;;;13.46;55.08
39823;BME280;25499;53.958;10.970;2023-04-29T16:34:13;101383.16;;;13.40;55.88
39823;BME280;25499;53.958;10.970;2023-04-29T16:36:39;101399.78;;;13.21;57.20
39823;BME280;25499;53.958;10.970;2023-04-29T16:39:08;101409.34;;;13.23;57.51
39823;BME280;25499;53.958;10.970;2023-04-29T16:41:34;101405.91;;;13.07;57.63
39823;BME280;25499;53.958;10.970;2023-04-29T16:44:01;101390.28;;;12.95;57.02
39823;BME280;25499;53.958;10.970;2023-04-29T16:46:28;101382.44;;;12.89;56.20
39823;BME280;25499;53.958;10.970;2023-04-29T16:48:56;101385.94;;;12.79;56.55
39823;BME280;25499;53.958;10.970;2023-04-29T16:51:23;101391.19;;;12.60;56.46
39823;BME280;25499;53.958;10.970;2023-04-29T16:53:50;101402.53;;;12.56;57.28
39823;BME280;25499;53.958;10.970;2023-04-29T16:56:19;101425.19;;;12.51;58.58
39823;BME280;25499;53.958;10.970;2023-04-29T16:58:47;101453.88;;;12.43;59.26
39823;BME280;25499;53.958;10.970;2023-04-29T17:01:14;101453.91;;;12.46;59.20
39823;BME280;25499;53.958;10.970;2023-04-29T17:03:43;101450.41;;;12.38;59.16
39823;BME280;25499;53.958;10.970;2023-04-29T17:06:11;101453.88;;;12.12;59.71
39823;BME280;25499;53.958;10.970;2023-04-29T17:08:38;101462.59;;;12.22;59.73
39823;BME280;25499;53.958;10.970;2023-04-29T17:11:05;101468.66;;;12.21;59.99
39823;BME280;25499;53.958;10.970;2023-04-29T17:13:33;101468.63;;;12.04;59.90
39823;BME280;25499;53.958;10.970;2023-04-29T17:16:00;101455.56;;;12.00;59.50
39823;BME280;25499;53.958;10.970;2023-04-29T17:18:27;101464.28;;;12.05;59.38
39823;BME280;25499;53.958;10.970;2023-04-29T17:20:54;101479.09;;;12.10;59.65
39823;BME280;25499;53.958;10.970;2023-04-29T17:23:20;101471.25;;;11.97;59.51
39823;BME280;25499;53.958;10.970;2023-04-29T17:25:47;101476.44;;;11.92;59.11
39823;BME280;25499;53.958;10.970;2023-04-29T17:28:14;101458.97;;;11.79;59.04
39823;BME280;25499;53.958;10.970;2023-04-29T17:30:42;101469.38;;;11.69;59.31
39823;BME280;25499;53.958;10.970;2023-04-29T17:33:09;101478.03;;;11.64;59.55
39823;BME280;25499;53.958;10.970;2023-04-29T17:35:37;101472.84;;;11.67;59.17
39823;BME280;25499;53.958;10.970;2023-04-29T17:38:05;101472.78;;;11.54;59.47
39823;BME280;25499;53.958;10.970;2023-04-29T17:40:32;101476.25;;;11.56;59.16
39823;BME280;25499;53.958;10.970;2023-04-29T17:42:59;101493.63;;;11.53;59.53
39823;BME280;25499;53.958;10.970;2023-04-29T17:45:25;101497.94;;;11.43;59.74
39823;BME280;25499;53.958;10.970;2023-04-29T17:47:54;101504.81;;;11.35;60.17
39823;BME280;25499;53.958;10.970;2023-04-29T17:50:20;101500.50;;;11.34;60.08
39823;BME280;25499;53.958;10.970;2023-04-29T17:52:47;101502.19;;;11.26;59.93
39823;BME280;25499;53.958;10.970;2023-04-29T17:55:14;101484.66;;;11.06;59.59
39823;BME280;25499;53.958;10.970;2023-04-29T17:57:41;101494.19;;;10.96;59.48
39823;BME280;25499;53.958;10.970;2023-04-29T18:00:09;101513.28;;;10.98;59.93
39823;BME280;25499;53.958;10.970;2023-04-29T18:02:36;101516.69;;;10.90;60.37
39823;BME280;25499;53.958;10.970;2023-04-29T18:05:04;101525.44;;;10.96;60.40
39823;BME280;25499;53.958;10.970;2023-04-29T18:07:31;101526.34;;;11.05;60.20
39823;BME280;25499;53.958;10.970;2023-04-29T18:09:58;101524.50;;;10.87;60.31
39823;BME280;25499;53.958;10.970;2023-04-29T18:12:25;101537.53;;;10.90;60.88
39823;BME280;25499;53.958;10.970;2023-04-29T18:14:51;101536.47;;;10.69;60.85
39823;BME280;25499;53.958;10.970;2023-04-29T18:17:18;101552.06;;;10.63;61.15
39823;BME280;25499;53.958;10.970;2023-04-29T18:19:46;101545.06;;;10.57;61.30
39823;BME280;25499;53.958;10.970;2023-04-29T18:22:15;101559.78;;;10.52;61.60
39823;BME280;25499;53.958;10.970;2023-04-29T18:24:42;101567.50;;;10.44;62.20
39823;BME280;25499;53.958;10.970;2023-04-29T18:27:08;101558.81;;;10.42;61.96
39823;BME280;25499;53.958;10.970;2023-04-29T18:29:35;101563.94;;;10.38;61.71
39823;BME280;25499;53.958;10.970;2023-04-29T18:32:02;101568.19;;;10.31;61.85
39823;BME280;25499;53.958;10.970;2023-04-29T18:34:30;101582.16;;;10.36;62.09
39823;BME280;25499;53.958;10.970;2023-04-29T18:36:57;101578.38;;;10.13;62.27
39823;BME280;25499;53.958;10.970;2023-04-29T18:39:25;101594.75;;;10.04;62.82
39823;BME280;25499;53.958;10.970;2023-04-29T18:41:52;101613.00;;;10.07;63.54
39823;BME280;25499;53.958;10.970;2023-04-29T18:44:18;101619.97;;;10.09;63.54
39823;BME280;25499;53.958;10.970;2023-04-29T18:46:45;101622.56;;;10.09;63.90
39823;BME280;25499;53.958;10.970;2023-04-29T18:49:12;101628.63;;;10.08;64.10
39823;BME280;25499;53.958;10.970;2023-04-29T18:51:41;101627.56;;;9.94;64.02
39823;BME280;25499;53.958;10.970;2023-04-29T18:54:11;101639.56;;;9.83;64.51
39823;BME280;25499;53.958;10.970;2023-04-29T18:56:40;101653.28;;;9.73;64.87
39823;BME280;25499;53.958;10.970;2023-04-29T18:59:08;101668.00;;;9.72;65.16
39823;BME280;25499;53.958;10.970;2023-04-29T19:01:37;101672.31;;;9.71;65.30
39823;BME280;25499;53.958;10.970;2023-04-29T19:04:04;101679.28;;;9.73;65.53
39823;BME280;25499;53.958;10.970;2023-04-29T19:06:31;101674.09;;;9.73;65.76
39823;BME280;25499;53.958;10.970;2023-04-29T19:08:58;101682.53;;;9.59;66.10
39823;BME280;25499;53.958;10.970;2023-04-29T19:11:25;101686.75;;;9.52;66.42
39823;BME280;25499;53.958;10.970;2023-04-29T19:13:54;101692.03;;;9.56;66.68
39823;BME280;25499;53.958;10.970;2023-04-29T19:16:21;101701.31;;;9.43;66.95
39823;BME280;25499;53.958;10.970;2023-04-29T19:18:48;101704.88;;;9.48;67.04